sensor_id;sensor_type;location;lat;lon;timestamp;P1;durP1;ratioP1;P2;durP2;ratioP2
36423;SDS011;22458;45.328;9.514;2022-09-09T00:03:36;10.02;;;7.22;;
36423;SDS011;22458;45.328;9.514;2022-09-09T00:11:49;12.48;;;8.10;;
36423;SDS011;22458;45.328;9.514;2022-09-09T00:20:03;11.27;;;7.47;;
36423;SDS011;22458;45.328;9.514;2022-09-09T00:22:30;10.65;;;7.97;;
36423;SDS011;22458;45.328;9.514;2022-09-09T00:25:19;9.43;;;7.50;;
36423;SDS011;22458;45.328;9.514;2022-09-09T00:27:47;11.13;;;7.88;;
36423;SDS011;22458;45.328;9.514;2022-09-09T00:33:10;10.35;;;8.15;;
36423;SDS011;22458;45.328;9.514;2022-09-09T00:35:42;12.40;;;7.43;;
36423;SDS011;22458;45.328;9.514;2022-09-09T00:40:59;9.90;;;8.10;;
36423;SDS011;22458;45.328;9.514;2022-09-09T00:43:35;11.80;;;8.25;;
36423;SDS011;22458;45.328;9.514;2022-09-09T00:54:54;12.50;;;8.93;;
36423;SDS011;22458;45.328;9.514;2022-09-09T00:57:33;11.45;;;8.23;;
36423;SDS011;22458;45.328;9.514;2022-09-09T01:08:22;10.18;;;8.38;;
36423;SDS011;22458;45.328;9.514;2022-09-09T01:10:56;11.25;;;7.78;;
36423;SDS011;22458;45.328;9.514;2022-09-09T01:13:28;12.50;;;8.13;;
36423;SDS011;22458;45.328;9.514;2022-09-09T01:16:01;11.52;;;8.25;;
36423;SDS011;22458;45.328;9.514;2022-09-09T01:18:35;10.93;;;8.32;;
36423;SDS011;22458;45.328;9.514;2022-09-09T01:21:13;12.35;;;9.13;;
36423;SDS011;22458;45.328;9.514;2022-09-09T01:27:01;13.65;;;8.70;;
36423;SDS011;22458;45.328;9.514;2022-09-09T01:31:55;15.05;;;8.88;;
36423;SDS011;22458;45.328;9.514;2022-09-09T01:34:24;11.60;;;8.68;;
36423;SDS011;22458;45.328;9.514;2022-09-09T01:37:05;12.88;;;9.55;;
36423;SDS011;22458;45.328;9.514;2022-09-09T01:39:34;13.45;;;9.57;;
36423;SDS011;22458;45.328;9.514;2022-09-09T01:42:06;15.57;;;9.15;;
36423;SDS011;22458;45.328;9.514;2022-09-09T01:44:35;11.95;;;8.85;;
36423;SDS011;22458;45.328;9.514;2022-09-09T01:47:03;13.20;;;9.48;;
36423;SDS011;22458;45.328;9.514;2022-09-09T01:49:29;12.60;;;9.10;;
36423;SDS011;22458;45.328;9.514;2022-09-09T01:51:56;13.68;;;9.93;;
36423;SDS011;22458;45.328;9.514;2022-09-09T01:54:28;14.57;;;10.23;;
36423;SDS011;22458;45.328;9.514;2022-09-09T02:00:01;13.52;;;9.77;;
36423;SDS011;22458;45.328;9.514;2022-09-09T02:08:43;13.70;;;9.40;;
36423;SDS011;22458;45.328;9.514;2022-09-09T02:11:16;11.15;;;8.82;;
36423;SDS011;22458;45.328;9.514;2022-09-09T02:13:51;15.27;;;10.82;;
36423;SDS011;22458;45.328;9.514;2022-09-09T02:21:59;13.70;;;9.85;;
36423;SDS011;22458;45.328;9.514;2022-09-09T02:24:27;14.63;;;9.75;;
36423;SDS011;22458;45.328;9.514;2022-09-09T02:27:08;12.70;;;10.48;;
36423;SDS011;22458;45.328;9.514;2022-09-09T02:29:39;14.55;;;10.25;;
36423;SDS011;22458;45.328;9.514;2022-09-09T02:32:13;14.07;;;10.23;;
36423;SDS011;22458;45.328;9.514;2022-09-09T02:34:43;12.30;;;9.18;;
36423;SDS011;22458;45.328;9.514;2022-09-09T02:37:13;14.77;;;9.68;;
36423;SDS011;22458;45.328;9.514;2022-09-09T02:39:46;14.85;;;10.40;;
36423;SDS011;22458;45.328;9.514;2022-09-09T02:42:15;15.20;;;9.35;;
36423;SDS011;22458;45.328;9.514;2022-09-09T02:44:42;15.65;;;10.90;;
36423;SDS011;22458;45.328;9.514;2022-09-09T02:47:18;14.18;;;9.95;;
36423;SDS011;22458;45.328;9.514;2022-09-09T02:52:50;14.80;;;10.52;;
36423;SDS011;22458;45.328;9.514;2022-09-09T02:55:43;12.98;;;10.10;;
36423;SDS011;22458;45.328;9.514;2022-09-09T02:58:12;15.57;;;11.20;;
36423;SDS011;22458;45.328;9.514;2022-09-09T03:00:43;16.50;;;11.23;;
36423;SDS011;22458;45.328;9.514;2022-09-09T03:03:11;15.80;;;10.95;;
36423;SDS011;22458;45.328;9.514;2022-09-09T03:05:38;15.63;;;11.07;;
36423;SDS011;22458;45.328;9.514;2022-09-09T03:08:04;16.65;;;11.48;;
36423;SDS011;22458;45.328;9.514;2022-09-09T03:10:31;17.10;;;12.27;;
36423;SDS011;22458;45.328;9.514;2022-09-09T03:12:58;17.75;;;12.82;;
36423;SDS011;22458;45.328;9.514;2022-09-09T03:15:25;18.77;;;12.57;;
36423;SDS011;22458;45.328;9.514;2022-09-09T03:17:56;15.98;;;12.18;;
36423;SDS011;22458;45.328;9.514;2022-09-09T03:20:24;15.88;;;12.07;;
36423;SDS011;22458;45.328;9.514;2022-09-09T03:22:52;15.90;;;11.68;;
36423;SDS011;22458;45.328;9.514;2022-09-09T03:25:18;16.90;;;12.55;;
36423;SDS011;22458;45.328;9.514;2022-09-09T03:27:45;17.63;;;13.38;;
36423;SDS011;22458;45.328;9.514;2022-09-09T03:30:11;19.58;;;13.45;;
36423;SDS011;22458;45.328;9.514;2022-09-09T03:32:37;17.55;;;13.77;;
36423;SDS011;22458;45.328;9.514;2022-09-09T03:35:03;17.88;;;13.30;;
36423;SDS011;22458;45.328;9.514;2022-09-09T03:37:30;19.45;;;13.18;;
36423;SDS011;22458;45.328;9.514;2022-09-09T03:39:56;19.00;;;14.02;;
36423;SDS011;22458;45.328;9.514;2022-09-09T03:42:23;16.10;;;12.27;;
36423;SDS011;22458;45.328;9.514;2022-09-09T03:44:51;20.80;;;15.48;;
36423;SDS011;22458;45.328;9.514;2022-09-09T03:47:22;18.58;;;13.05;;
36423;SDS011;22458;45.328;9.514;2022-09-09T03:49:52;21.58;;;13.93;;
36423;SDS011;22458;45.328;9.514;2022-09-09T03:52:17;17.02;;;13.07;;
36423;SDS011;22458;45.328;9.514;2022-09-09T03:54:43;20.08;;;13.18;;
36423;SDS011;22458;45.328;9.514;2022-09-09T03:57:09;20.65;;;13.93;;
36423;SDS011;22458;45.328;9.514;2022-09-09T03:59:36;18.98;;;13.73;;
36423;SDS011;22458;45.328;9.514;2022-09-09T04:02:02;18.55;;;12.45;;
36423;SDS011;22458;45.328;9.514;2022-09-09T04:04:28;22.83;;;13.73;;
36423;SDS011;22458;45.328;9.514;2022-09-09T04:06:54;21.55;;;14.50;;
36423;SDS011;22458;45.328;9.514;2022-09-09T04:09:20;18.98;;;13.63;;
36423;SDS011;22458;45.328;9.514;2022-09-09T04:11:47;21.13;;;14.70;;
36423;SDS011;22458;45.328;9.514;2022-09-09T04:14:14;18.48;;;13.93;;
36423;SDS011;22458;45.328;9.514;2022-09-09T04:16:41;17.35;;;12.18;;
36423;SDS011;22458;45.328;9.514;2022-09-09T04:19:09;17.38;;;13.32;;
36423;SDS011;22458;45.328;9.514;2022-09-09T04:21:40;18.25;;;13.27;;
36423;SDS011;22458;45.328;9.514;2022-09-09T04:24:07;17.88;;;12.80;;
36423;SDS011;22458;45.328;9.514;2022-09-09T04:26:33;18.13;;;11.45;;
36423;SDS011;22458;45.328;9.514;2022-09-09T04:29:02;15.30;;;11.82;;
36423;SDS011;22458;45.328;9.514;2022-09-09T04:31:28;19.98;;;13.38;;
36423;SDS011;22458;45.328;9.514;2022-09-09T04:33:55;17.90;;;12.20;;
36423;SDS011;22458;45.328;9.514;2022-09-09T04:36:22;19.75;;;12.05;;
36423;SDS011;22458;45.328;9.514;2022-09-09T04:38:50;19.38;;;12.45;;
36423;SDS011;22458;45.328;9.514;2022-09-09T04:41:16;19.05;;;12.25;;
36423;SDS011;22458;45.328;9.514;2022-09-09T04:43:43;16.00;;;12.00;;
36423;SDS011;22458;45.328;9.514;2022-09-09T04:46:10;21.95;;;12.73;;
36423;SDS011;22458;45.328;9.514;2022-09-09T04:48:37;16.67;;;11.40;;
36423;SDS011;22458;45.328;9.514;2022-09-09T04:51:05;18.60;;;12.50;;
36423;SDS011;22458;45.328;9.514;2022-09-09T04:53:35;19.52;;;11.95;;
36423;SDS011;22458;45.328;9.514;2022-09-09T04:56:05;19.45;;;12.40;;
36423;SDS011;22458;45.328;9.514;2022-09-09T04:58:35;15.80;;;12.95;;
36423;SDS011;22458;45.328;9.514;2022-09-09T05:01:04;19.40;;;12.40;;
36423;SDS011;22458;45.328;9.514;2022-09-09T05:03:30;17.02;;;11.90;;
36423;SDS011;22458;45.328;9.514;2022-09-09T05:06:03;18.58;;;11.50;;
36423;SDS011;22458;45.328;9.514;2022-09-09T05:08:30;16.63;;;11.90;;
36423;SDS011;22458;45.328;9.514;2022-09-09T05:10:56;17.45;;;11.63;;
36423;SDS011;22458;45.328;9.514;2022-09-09T05:13:23;16.98;;;12.57;;
36423;SDS011;22458;45.328;9.514;2022-09-09T05:15:53;18.02;;;12.50;;
36423;SDS011;22458;45.328;9.514;2022-09-09T05:18:19;17.55;;;11.65;;
36423;SDS011;22458;45.328;9.514;2022-09-09T05:20:48;15.07;;;11.40;;
36423;SDS011;22458;45.328;9.514;2022-09-09T05:23:14;15.35;;;10.52;;
36423;SDS011;22458;45.328;9.514;2022-09-09T05:25:40;17.92;;;10.85;;
36423;SDS011;22458;45.328;9.514;2022-09-09T05:28:06;17.65;;;10.80;;
36423;SDS011;22458;45.328;9.514;2022-09-09T05:30:33;14.63;;;10.93;;
36423;SDS011;22458;45.328;9.514;2022-09-09T05:33:02;18.13;;;10.20;;
36423;SDS011;22458;45.328;9.514;2022-09-09T05:35:28;14.55;;;9.38;;
36423;SDS011;22458;45.328;9.514;2022-09-09T05:37:58;12.52;;;9.77;;
36423;SDS011;22458;45.328;9.514;2022-09-09T05:40:24;17.02;;;9.55;;
36423;SDS011;22458;45.328;9.514;2022-09-09T05:42:50;15.95;;;9.68;;
36423;SDS011;22458;45.328;9.514;2022-09-09T05:45:16;13.25;;;9.77;;
36423;SDS011;22458;45.328;9.514;2022-09-09T05:47:42;16.25;;;10.20;;
36423;SDS011;22458;45.328;9.514;2022-09-09T05:50:12;13.57;;;10.35;;
36423;SDS011;22458;45.328;9.514;2022-09-09T05:52:39;14.25;;;9.65;;
36423;SDS011;22458;45.328;9.514;2022-09-09T05:55:06;15.23;;;9.57;;
36423;SDS011;22458;45.328;9.514;2022-09-09T05:57:33;13.13;;;9.77;;
36423;SDS011;22458;45.328;9.514;2022-09-09T05:59:58;15.00;;;9.55;;
36423;SDS011;22458;45.328;9.514;2022-09-09T06:02:24;13.15;;;9.35;;
36423;SDS011;22458;45.328;9.514;2022-09-09T06:04:51;14.52;;;9.77;;
36423;SDS011;22458;45.328;9.514;2022-09-09T06:07:17;14.63;;;9.25;;
36423;SDS011;22458;45.328;9.514;2022-09-09T06:09:43;15.02;;;9.57;;
36423;SDS011;22458;45.328;9.514;2022-09-09T06:12:08;13.45;;;8.65;;
36423;SDS011;22458;45.328;9.514;2022-09-09T06:14:35;12.77;;;9.35;;
36423;SDS011;22458;45.328;9.514;2022-09-09T06:17:02;14.45;;;9.45;;
36423;SDS011;22458;45.328;9.514;2022-09-09T06:19:29;13.57;;;9.93;;
36423;SDS011;22458;45.328;9.514;2022-09-09T06:21:57;13.70;;;10.10;;
36423;SDS011;22458;45.328;9.514;2022-09-09T06:24:24;15.00;;;10.10;;
36423;SDS011;22458;45.328;9.514;2022-09-09T06:26:50;16.08;;;11.00;;
36423;SDS011;22458;45.328;9.514;2022-09-09T06:29:20;16.38;;;11.50;;
36423;SDS011;22458;45.328;9.514;2022-09-09T06:31:46;15.23;;;10.90;;
36423;SDS011;22458;45.328;9.514;2022-09-09T06:34:15;13.50;;;9.68;;
36423;SDS011;22458;45.328;9.514;2022-09-09T06:36:45;13.18;;;8.93;;
36423;SDS011;22458;45.328;9.514;2022-09-09T06:39:12;14.00;;;9.05;;
36423;SDS011;22458;45.328;9.514;2022-09-09T06:41:39;11.32;;;8.82;;
36423;SDS011;22458;45.328;9.514;2022-09-09T06:44:09;14.38;;;7.90;;
36423;SDS011;22458;45.328;9.514;2022-09-09T06:46:40;12.07;;;8.43;;
36423;SDS011;22458;45.328;9.514;2022-09-09T06:49:08;12.30;;;7.35;;
36423;SDS011;22458;45.328;9.514;2022-09-09T06:51:35;12.80;;;8.38;;
36423;SDS011;22458;45.328;9.514;2022-09-09T06:54:08;10.93;;;7.20;;
36423;SDS011;22458;45.328;9.514;2022-09-09T06:56:35;12.75;;;7.28;;
36423;SDS011;22458;45.328;9.514;2022-09-09T06:59:07;11.50;;;7.68;;
36423;SDS011;22458;45.328;9.514;2022-09-09T07:01:36;9.67;;;7.20;;
36423;SDS011;22458;45.328;9.514;2022-09-09T07:04:09;10.93;;;7.38;;
36423;SDS011;22458;45.328;9.514;2022-09-09T07:06:39;10.35;;;7.57;;
36423;SDS011;22458;45.328;9.514;2022-09-09T07:09:10;12.98;;;6.70;;
36423;SDS011;22458;45.328;9.514;2022-09-09T07:11:49;5.53;;;3.90;;
36423;SDS011;22458;45.328;9.514;2022-09-09T07:14:21;3.20;;;1.58;;
36423;SDS011;22458;45.328;9.514;2022-09-09T07:16:51;3.70;;;0.70;;
36423;SDS011;22458;45.328;9.514;2022-09-09T07:19:18;2.15;;;0.52;;
36423;SDS011;22458;45.328;9.514;2022-09-09T07:21:46;1.52;;;0.55;;
36423;SDS011;22458;45.328;9.514;2022-09-09T07:24:15;0.80;;;0.38;;
36423;SDS011;22458;45.328;9.514;2022-09-09T07:26:42;0.70;;;0.30;;
36423;SDS011;22458;45.328;9.514;2022-09-09T07:31:39;0.80;;;0.20;;
36423;SDS011;22458;45.328;9.514;2022-09-09T07:34:09;0.40;;;0.28;;
36423;SDS011;22458;45.328;9.514;2022-09-09T07:36:36;0.30;;;0.20;;
36423;SDS011;22458;45.328;9.514;2022-09-09T07:39:08;0.70;;;0.40;;
36423;SDS011;22458;45.328;9.514;2022-09-09T07:41:38;6.28;;;0.47;;
36423;SDS011;22458;45.328;9.514;2022-09-09T07:44:07;0.90;;;0.30;;
36423;SDS011;22458;45.328;9.514;2022-09-09T07:46:48;0.95;;;0.35;;
36423;SDS011;22458;45.328;9.514;2022-09-09T07:49:18;2.00;;;0.50;;
36423;SDS011;22458;45.328;9.514;2022-09-09T07:51:45;2.90;;;0.30;;
36423;SDS011;22458;45.328;9.514;2022-09-09T07:54:14;0.60;;;0.30;;
36423;SDS011;22458;45.328;9.514;2022-09-09T07:56:44;1.48;;;0.60;;
36423;SDS011;22458;45.328;9.514;2022-09-09T07:59:11;0.75;;;0.20;;
36423;SDS011;22458;45.328;9.514;2022-09-09T08:01:43;0.40;;;0.20;;
36423;SDS011;22458;45.328;9.514;2022-09-09T08:04:14;1.83;;;0.30;;
36423;SDS011;22458;45.328;9.514;2022-09-09T08:06:46;0.88;;;0.40;;
36423;SDS011;22458;45.328;9.514;2022-09-09T08:09:15;0.70;;;0.30;;
36423;SDS011;22458;45.328;9.514;2022-09-09T08:11:42;0.40;;;0.30;;
36423;SDS011;22458;45.328;9.514;2022-09-09T08:14:08;1.63;;;0.20;;
36423;SDS011;22458;45.328;9.514;2022-09-09T08:16:40;0.65;;;0.30;;
36423;SDS011;22458;45.328;9.514;2022-09-09T08:19:08;0.30;;;0.20;;
36423;SDS011;22458;45.328;9.514;2022-09-09T08:21:35;1.25;;;0.40;;
36423;SDS011;22458;45.328;9.514;2022-09-09T08:24:04;0.98;;;0.30;;
36423;SDS011;22458;45.328;9.514;2022-09-09T08:26:33;1.17;;;0.25;;
36423;SDS011;22458;45.328;9.514;2022-09-09T08:29:01;1.20;;;0.25;;
36423;SDS011;22458;45.328;9.514;2022-09-09T08:31:33;1.48;;;0.45;;
36423;SDS011;22458;45.328;9.514;2022-09-09T08:34:01;0.60;;;0.20;;
36423;SDS011;22458;45.328;9.514;2022-09-09T08:36:30;0.35;;;0.20;;
36423;SDS011;22458;45.328;9.514;2022-09-09T08:39:03;0.82;;;0.25;;
36423;SDS011;22458;45.328;9.514;2022-09-09T08:41:40;0.77;;;0.22;;
36423;SDS011;22458;45.328;9.514;2022-09-09T08:52:23;1.30;;;0.30;;
36423;SDS011;22458;45.328;9.514;2022-09-09T08:54:58;1.65;;;0.43;;
36423;SDS011;22458;45.328;9.514;2022-09-09T08:57:48;1.20;;;0.30;;
36423;SDS011;22458;45.328;9.514;2022-09-09T09:00:17;1.73;;;0.20;;
36423;SDS011;22458;45.328;9.514;2022-09-09T09:05:22;0.75;;;0.32;;
36423;SDS011;22458;45.328;9.514;2022-09-09T09:10:50;1.10;;;0.55;;
36423;SDS011;22458;45.328;9.514;2022-09-09T09:13:26;2.92;;;0.75;;
36423;SDS011;22458;45.328;9.514;2022-09-09T09:16:06;1.20;;;1.05;;
36423;SDS011;22458;45.328;9.514;2022-09-09T09:18:45;3.45;;;0.80;;
36423;SDS011;22458;45.328;9.514;2022-09-09T09:21:16;1.77;;;0.88;;
36423;SDS011;22458;45.328;9.514;2022-09-09T09:23:58;2.17;;;0.90;;
36423;SDS011;22458;45.328;9.514;2022-09-09T09:26:32;1.65;;;0.90;;
36423;SDS011;22458;45.328;9.514;2022-09-09T09:29:00;0.95;;;0.60;;
36423;SDS011;22458;45.328;9.514;2022-09-09T09:31:37;1.10;;;0.88;;
36423;SDS011;22458;45.328;9.514;2022-09-09T09:34:03;2.03;;;0.70;;
36423;SDS011;22458;45.328;9.514;2022-09-09T09:36:35;2.28;;;0.80;;
36423;SDS011;22458;45.328;9.514;2022-09-09T09:39:21;1.10;;;0.90;;
36423;SDS011;22458;45.328;9.514;2022-09-09T09:41:55;1.15;;;0.80;;
36423;SDS011;22458;45.328;9.514;2022-09-09T09:44:24;2.42;;;0.88;;
36423;SDS011;22458;45.328;9.514;2022-09-09T09:46:50;1.58;;;1.00;;
36423;SDS011;22458;45.328;9.514;2022-09-09T09:49:16;1.85;;;0.77;;
36423;SDS011;22458;45.328;9.514;2022-09-09T09:51:43;1.08;;;0.80;;
36423;SDS011;22458;45.328;9.514;2022-09-09T09:56:38;2.10;;;0.65;;
36423;SDS011;22458;45.328;9.514;2022-09-09T09:59:18;1.10;;;0.95;;
36423;SDS011;22458;45.328;9.514;2022-09-09T10:01:53;0.85;;;0.50;;
36423;SDS011;22458;45.328;9.514;2022-09-09T10:04:21;1.30;;;0.80;;
36423;SDS011;22458;45.328;9.514;2022-09-09T10:06:53;0.98;;;0.57;;
36423;SDS011;22458;45.328;9.514;2022-09-09T10:09:23;1.63;;;0.70;;
36423;SDS011;22458;45.328;9.514;2022-09-09T10:35:30;1.48;;;0.40;;
36423;SDS011;22458;45.328;9.514;2022-09-09T10:38:12;2.22;;;0.90;;
36423;SDS011;22458;45.328;9.514;2022-09-09T10:43:12;1.92;;;0.45;;
36423;SDS011;22458;45.328;9.514;2022-09-09T10:46:01;3.35;;;0.55;;
36423;SDS011;22458;45.328;9.514;2022-09-09T10:51:23;0.63;;;0.30;;
36423;SDS011;22458;45.328;9.514;2022-09-09T10:54:03;0.68;;;0.38;;
36423;SDS011;22458;45.328;9.514;2022-09-09T10:56:33;1.05;;;0.60;;
36423;SDS011;22458;45.328;9.514;2022-09-09T10:59:02;0.55;;;0.35;;
36423;SDS011;22458;45.328;9.514;2022-09-09T11:01:44;2.75;;;1.92;;
36423;SDS011;22458;45.328;9.514;2022-09-09T11:04:47;1.05;;;0.63;;
36423;SDS011;22458;45.328;9.514;2022-09-09T11:07:25;3.13;;;2.03;;
36423;SDS011;22458;45.328;9.514;2022-09-09T11:09:59;2.15;;;1.38;;
36423;SDS011;22458;45.328;9.514;2022-09-09T11:12:31;3.03;;;1.40;;
36423;SDS011;22458;45.328;9.514;2022-09-09T11:15:08;1.00;;;0.70;;
36423;SDS011;22458;45.328;9.514;2022-09-09T11:17:43;1.27;;;0.60;;
36423;SDS011;22458;45.328;9.514;2022-09-09T11:20:14;1.40;;;0.70;;
36423;SDS011;22458;45.328;9.514;2022-09-09T11:25:17;2.35;;;1.33;;
36423;SDS011;22458;45.328;9.514;2022-09-09T11:41:42;7.63;;;4.78;;
36423;SDS011;22458;45.328;9.514;2022-09-09T11:44:10;1.70;;;0.93;;
36423;SDS011;22458;45.328;9.514;2022-09-09T11:46:38;3.40;;;2.17;;
36423;SDS011;22458;45.328;9.514;2022-09-09T11:49:05;4.28;;;2.20;;
36423;SDS011;22458;45.328;9.514;2022-09-09T11:51:32;6.22;;;3.13;;
36423;SDS011;22458;45.328;9.514;2022-09-09T11:54:44;3.25;;;1.98;;
36423;SDS011;22458;45.328;9.514;2022-09-09T11:56:57;3.70;;;1.83;;
36423;SDS011;22458;45.328;9.514;2022-09-09T11:59:30;1.23;;;0.60;;
36423;SDS011;22458;45.328;9.514;2022-09-09T12:02:01;2.60;;;1.60;;
36423;SDS011;22458;45.328;9.514;2022-09-09T12:04:42;1.08;;;0.60;;
36423;SDS011;22458;45.328;9.514;2022-09-09T12:07:25;3.10;;;1.40;;
36423;SDS011;22458;45.328;9.514;2022-09-09T12:10:01;2.72;;;1.58;;
36423;SDS011;22458;45.328;9.514;2022-09-09T12:14:59;1.65;;;0.90;;
36423;SDS011;22458;45.328;9.514;2022-09-09T12:17:29;2.20;;;1.38;;
36423;SDS011;22458;45.328;9.514;2022-09-09T12:20:00;6.90;;;2.85;;
36423;SDS011;22458;45.328;9.514;2022-09-09T12:33:51;3.10;;;1.48;;
36423;SDS011;22458;45.328;9.514;2022-09-09T12:36:25;2.53;;;1.65;;
36423;SDS011;22458;45.328;9.514;2022-09-09T12:38:55;2.97;;;1.95;;
36423;SDS011;22458;45.328;9.514;2022-09-09T12:41:25;2.58;;;0.68;;
36423;SDS011;22458;45.328;9.514;2022-09-09T12:44:06;1.83;;;0.98;;
36423;SDS011;22458;45.328;9.514;2022-09-09T12:46:39;3.70;;;2.13;;
36423;SDS011;22458;45.328;9.514;2022-09-09T12:49:25;5.28;;;3.05;;
36423;SDS011;22458;45.328;9.514;2022-09-09T12:51:59;3.40;;;2.15;;
36423;SDS011;22458;45.328;9.514;2022-09-09T12:54:28;1.83;;;1.20;;
36423;SDS011;22458;45.328;9.514;2022-09-09T12:56:54;8.60;;;4.82;;
36423;SDS011;22458;45.328;9.514;2022-09-09T12:59:27;6.78;;;4.32;;
36423;SDS011;22458;45.328;9.514;2022-09-09T13:02:02;5.78;;;3.33;;
36423;SDS011;22458;45.328;9.514;2022-09-09T13:04:36;7.05;;;4.13;;
36423;SDS011;22458;45.328;9.514;2022-09-09T13:07:06;2.60;;;1.60;;
36423;SDS011;22458;45.328;9.514;2022-09-09T13:09:34;2.95;;;2.00;;
36423;SDS011;22458;45.328;9.514;2022-09-09T13:12:00;6.13;;;3.83;;
36423;SDS011;22458;45.328;9.514;2022-09-09T13:14:32;15.32;;;10.82;;
36423;SDS011;22458;45.328;9.514;2022-09-09T13:17:03;14.23;;;8.38;;
36423;SDS011;22458;45.328;9.514;2022-09-09T13:19:32;3.20;;;2.53;;
36423;SDS011;22458;45.328;9.514;2022-09-09T13:22:11;5.28;;;3.20;;
36423;SDS011;22458;45.328;9.514;2022-09-09T13:24:58;5.03;;;2.33;;
36423;SDS011;22458;45.328;9.514;2022-09-09T13:27:50;2.08;;;1.00;;
36423;SDS011;22458;45.328;9.514;2022-09-09T13:30:19;2.03;;;1.10;;
36423;SDS011;22458;45.328;9.514;2022-09-09T13:32:47;5.47;;;3.50;;
36423;SDS011;22458;45.328;9.514;2022-09-09T13:35:26;2.22;;;1.45;;
36423;SDS011;22458;45.328;9.514;2022-09-09T13:37:52;14.50;;;7.05;;
36423;SDS011;22458;45.328;9.514;2022-09-09T13:40:19;6.55;;;2.92;;
36423;SDS011;22458;45.328;9.514;2022-09-09T13:42:47;4.88;;;2.08;;
36423;SDS011;22458;45.328;9.514;2022-09-09T13:45:24;2.95;;;1.80;;
36423;SDS011;22458;45.328;9.514;2022-09-09T13:47:54;4.88;;;2.72;;
36423;SDS011;22458;45.328;9.514;2022-09-09T13:50:27;3.53;;;1.30;;
36423;SDS011;22458;45.328;9.514;2022-09-09T13:52:55;2.55;;;1.85;;
36423;SDS011;22458;45.328;9.514;2022-09-09T13:55:25;5.25;;;2.50;;
36423;SDS011;22458;45.328;9.514;2022-09-09T14:00:21;5.38;;;2.42;;
36423;SDS011;22458;45.328;9.514;2022-09-09T14:02:49;4.38;;;1.50;;
36423;SDS011;22458;45.328;9.514;2022-09-09T14:05:16;1.88;;;1.10;;
36423;SDS011;22458;45.328;9.514;2022-09-09T14:07:43;3.28;;;2.25;;
36423;SDS011;22458;45.328;9.514;2022-09-09T14:10:09;4.95;;;2.10;;
36423;SDS011;22458;45.328;9.514;2022-09-09T14:12:35;3.63;;;1.60;;
36423;SDS011;22458;45.328;9.514;2022-09-09T14:15:02;3.88;;;1.35;;
36423;SDS011;22458;45.328;9.514;2022-09-09T14:17:29;11.15;;;5.00;;
36423;SDS011;22458;45.328;9.514;2022-09-09T14:19:56;2.33;;;1.50;;
36423;SDS011;22458;45.328;9.514;2022-09-09T14:22:23;7.60;;;3.42;;
36423;SDS011;22458;45.328;9.514;2022-09-09T14:24:51;6.15;;;2.08;;
36423;SDS011;22458;45.328;9.514;2022-09-09T14:27:17;3.63;;;1.90;;
36423;SDS011;22458;45.328;9.514;2022-09-09T14:29:44;5.32;;;2.72;;
36423;SDS011;22458;45.328;9.514;2022-09-09T14:32:10;7.18;;;4.57;;
36423;SDS011;22458;45.328;9.514;2022-09-09T14:34:36;3.08;;;2.17;;
36423;SDS011;22458;45.328;9.514;2022-09-09T14:37:03;5.47;;;3.10;;
36423;SDS011;22458;45.328;9.514;2022-09-09T14:39:29;7.10;;;4.35;;
36423;SDS011;22458;45.328;9.514;2022-09-09T14:41:55;8.10;;;3.88;;
36423;SDS011;22458;45.328;9.514;2022-09-09T14:44:21;4.55;;;1.50;;
36423;SDS011;22458;45.328;9.514;2022-09-09T14:46:47;10.00;;;6.28;;
36423;SDS011;22458;45.328;9.514;2022-09-09T14:49:15;3.13;;;2.45;;
36423;SDS011;22458;45.328;9.514;2022-09-09T14:51:41;8.52;;;4.80;;
36423;SDS011;22458;45.328;9.514;2022-09-09T14:54:07;5.63;;;3.42;;
36423;SDS011;22458;45.328;9.514;2022-09-09T14:56:33;3.60;;;2.45;;
36423;SDS011;22458;45.328;9.514;2022-09-09T14:59:03;4.45;;;1.73;;
36423;SDS011;22458;45.328;9.514;2022-09-09T15:01:30;6.00;;;3.55;;
36423;SDS011;22458;45.328;9.514;2022-09-09T15:04:01;4.47;;;3.17;;
36423;SDS011;22458;45.328;9.514;2022-09-09T15:06:30;3.67;;;2.42;;
36423;SDS011;22458;45.328;9.514;2022-09-09T15:08:58;5.20;;;2.80;;
36423;SDS011;22458;45.328;9.514;2022-09-09T15:11:29;5.03;;;2.75;;
36423;SDS011;22458;45.328;9.514;2022-09-09T15:13:58;8.75;;;5.80;;
36423;SDS011;22458;45.328;9.514;2022-09-09T15:16:26;3.95;;;3.28;;
36423;SDS011;22458;45.328;9.514;2022-09-09T15:18:54;5.38;;;3.72;;
36423;SDS011;22458;45.328;9.514;2022-09-09T15:23:48;12.75;;;6.75;;
36423;SDS011;22458;45.328;9.514;2022-09-09T15:26:14;2.55;;;1.88;;
36423;SDS011;22458;45.328;9.514;2022-09-09T15:28:42;2.85;;;1.73;;
36423;SDS011;22458;45.328;9.514;2022-09-09T15:31:14;2.47;;;1.27;;
36423;SDS011;22458;45.328;9.514;2022-09-09T15:33:50;3.20;;;2.70;;
36423;SDS011;22458;45.328;9.514;2022-09-09T15:36:27;6.35;;;2.47;;
36423;SDS011;22458;45.328;9.514;2022-09-09T15:39:08;4.60;;;1.95;;
36423;SDS011;22458;45.328;9.514;2022-09-09T15:41:41;6.28;;;3.10;;
36423;SDS011;22458;45.328;9.514;2022-09-09T15:44:08;5.18;;;1.90;;
36423;SDS011;22458;45.328;9.514;2022-09-09T15:49:25;7.90;;;4.22;;
36423;SDS011;22458;45.328;9.514;2022-09-09T15:51:55;15.95;;;9.57;;
36423;SDS011;22458;45.328;9.514;2022-09-09T15:54:37;3.35;;;2.28;;
36423;SDS011;22458;45.328;9.514;2022-09-09T15:57:04;8.90;;;5.25;;
36423;SDS011;22458;45.328;9.514;2022-09-09T15:59:31;1.45;;;1.15;;
36423;SDS011;22458;45.328;9.514;2022-09-09T16:01:59;3.25;;;1.88;;
36423;SDS011;22458;45.328;9.514;2022-09-09T16:04:25;12.65;;;6.72;;
36423;SDS011;22458;45.328;9.514;2022-09-09T16:06:52;3.90;;;1.98;;
36423;SDS011;22458;45.328;9.514;2022-09-09T16:09:21;4.65;;;3.05;;
36423;SDS011;22458;45.328;9.514;2022-09-09T16:11:47;5.72;;;2.40;;
36423;SDS011;22458;45.328;9.514;2022-09-09T16:14:13;3.83;;;1.77;;
36423;SDS011;22458;45.328;9.514;2022-09-09T16:16:43;7.32;;;3.28;;
36423;SDS011;22458;45.328;9.514;2022-09-09T16:19:10;5.82;;;3.00;;
36423;SDS011;22458;45.328;9.514;2022-09-09T16:21:41;3.38;;;2.17;;
36423;SDS011;22458;45.328;9.514;2022-09-09T16:24:10;4.15;;;2.55;;
36423;SDS011;22458;45.328;9.514;2022-09-09T16:26:39;6.78;;;3.70;;
36423;SDS011;22458;45.328;9.514;2022-09-09T16:29:08;3.40;;;2.20;;
36423;SDS011;22458;45.328;9.514;2022-09-09T16:31:34;4.95;;;3.42;;
36423;SDS011;22458;45.328;9.514;2022-09-09T16:34:00;2.45;;;1.50;;
36423;SDS011;22458;45.328;9.514;2022-09-09T16:36:28;6.07;;;3.15;;
36423;SDS011;22458;45.328;9.514;2022-09-09T16:38:57;3.13;;;1.95;;
36423;SDS011;22458;45.328;9.514;2022-09-09T16:41:24;3.57;;;2.30;;
36423;SDS011;22458;45.328;9.514;2022-09-09T16:43:53;3.28;;;2.03;;
36423;SDS011;22458;45.328;9.514;2022-09-09T16:46:20;2.88;;;1.20;;
36423;SDS011;22458;45.328;9.514;2022-09-09T16:48:47;3.47;;;1.88;;
36423;SDS011;22458;45.328;9.514;2022-09-09T16:51:15;8.93;;;6.00;;
36423;SDS011;22458;45.328;9.514;2022-09-09T16:53:49;4.95;;;2.75;;
36423;SDS011;22458;45.328;9.514;2022-09-09T16:56:16;3.83;;;1.88;;
36423;SDS011;22458;45.328;9.514;2022-09-09T16:58:44;2.45;;;1.48;;
36423;SDS011;22458;45.328;9.514;2022-09-09T17:01:15;3.40;;;1.50;;
36423;SDS011;22458;45.328;9.514;2022-09-09T17:03:41;1.45;;;1.00;;
36423;SDS011;22458;45.328;9.514;2022-09-09T17:06:10;1.65;;;1.42;;
36423;SDS011;22458;45.328;9.514;2022-09-09T17:08:38;1.52;;;1.20;;
36423;SDS011;22458;45.328;9.514;2022-09-09T17:11:10;1.98;;;1.10;;
36423;SDS011;22458;45.328;9.514;2022-09-09T17:13:39;19.65;;;13.23;;
36423;SDS011;22458;45.328;9.514;2022-09-09T17:16:05;2.95;;;2.13;;
36423;SDS011;22458;45.328;9.514;2022-09-09T17:18:32;2.60;;;1.10;;
36423;SDS011;22458;45.328;9.514;2022-09-09T17:21:02;2.42;;;1.20;;